4WI2 weather

Island View Airport
Crandon, Wisconsin, United States

Public forecast

Using degrees Fahrenheit for public forecast. Weather courtesy of forecast.io.

Closest aviation weather report (METAR) to Island View Airport

Closest report is Rhinelander Oneida County Airport, 18.8 nm (34.8 km) W. Retrieved 2019/10/23 21:07 UTC (42 minutes ago):

KRHI 232107Z AUTO 25010KT 10SM BKN028 OVC034 05/00 A2985 RMK AO2 T00500000

Closest aviation forecast (TAF) to Island View Airport

Closest forecast is Rhinelander Oneida County Airport, 18.8 nm (34.8 km) W. Retrieved 2019/10/23 18:39 UTC (3 hours ago):

TAF KRHI 231737Z 2318/2418 27008G15KT P6SM OVC025 FM232100 28006KT P6SM OVC024 FM240600 29006KT P6SM BKN030 FM241100 29006KT P6SM OVC014